NCAR-RAP Real-Time Weather Data

Output produced by METARs form (20 February 2019  17:20 UTC)
found at http://weather.rap.ucar.edu/surface/
 
RJCH 201100Z 07006KT 9999 -SHRA FEW006 BKN012 02/01 Q1012
RJCH 201000Z 06005KT 9999 -SHRA FEW006 BKN012 BKN035 03/01 Q1012
RJCH 200900Z 06004KT 020V090 9999 FEW012 SCT030 BKN060 03/00 Q1012
RJCH 200800Z 04003KT 340V080 9999 FEW015 SCT035 BKN060 03/00 Q1012
RJCH 200700Z 09005KT 9999 FEW010 SCT040 BKN090 04/00 Q1012
RJCH 200600Z 13011KT 9999 FEW002 SCT030 BKN090 04/00 Q1012
RJCH 200500Z 13012KT 9999 FEW008 SCT020 BKN040 04/01 Q1012
RJCH 200400Z 12009KT 9999 FEW010 SCT025 BKN040 04/01 Q1012
RJCH 200334Z 13010KT 9999 FEW010 BKN030 BKN100 04/02 Q1012 RMK 1ST010 5CU030 7AC100 A2990
RJCH 200300Z 19006KT 160V220 9999 FEW020 SCT090 05/01 Q1012
RJCH 200200Z 22003KT 9999 FEW020 BKN100 05/02 Q1013
RJCH 200100Z VRB01KT 9999 FEW020 BKN100 05/02 Q1013
RJCH 200000Z VRB01KT 9999 FEW020 SCT080 BKN110 03/00 Q1013
RJCH 192300Z 02003KT 9999 FEW030 SCT080 BKN100 02/01 Q1013
RJCH 192200Z 01005KT 9999 FEW025 SCT070 BKN090 01/00 Q1013
RJCH 192110Z 01004KT 9999 FEW030 SCT080 BKN100 M00/M01 Q1013 RMK 1CU030 4AC080 6AC100 A2991
RJCH 191100Z 05005KT 9999 -SHRA FEW020 SCT035 BKN040 03/00 Q1015
RJCH 191000Z 04004KT 9999 -SHRA FEW020 SCT050 BKN070 03/00 Q1016
RJCH 190900Z 04003KT 9999 FEW018 BKN020 04/00 Q1017
RJCH 190800Z 16004KT 100V260 9999 FEW020 BKN025 BKN110 05/01 Q1017
RJCH 190700Z 13003KT 9999 FEW030 BKN120 BKN130 04/00 Q1018
RJCH 190600Z 11003KT 9999 FEW030 BKN120 05/M01 Q1018
RJCH 190500Z 13003KT 9999 FEW030 BKN130 BKN140 05/M02 Q1018
RJCH 190400Z 27003KT 9999 FEW030 SCT120 BKN140 05/M03 Q1020
RJCH 190300Z 31003KT 270V360 9999 FEW030 SCT120 BKN140 05/M03 Q1020
RJCH 190200Z VRB02KT 9999 FEW030 SCT100 BKN120 04/M03 Q1022
RJCH 190100Z 30003KT 9999 FEW040 SCT110 BKN130 02/M03 Q1023
RJCH 190000Z 32002KT 9999 FEW040 BKN130 01/M03 Q1023
RJCH 182300Z 01006KT 9999 FEW040 BKN150 M00/M03 Q1023
RJCH 182200Z 03003KT 010V160 9999 FEW040 BKN160 M02/M03 Q1024
RJCH 182110Z 01004KT 9999 FEW040 BKN180 M04/M05 Q1023 RMK 1CU040 6AC180 A3023
RJCH 181100Z 29004KT 9999 FEW030 M02/M08 Q1024
RJCH 181000Z 28005KT 9999 FEW030 M01/M07 Q1023
RJCH 180900Z 28006KT 9999 FEW030 M00/M07 Q1023
RJCH 180800Z 28008KT 9999 FEW030 01/M07 Q1022
RJCH 180700Z 29013KT 9999 FEW030 02/M07 Q1021
RJCH 180600Z 29011KT 9999 FEW030 03/M07 Q1021